sensor_id;sensor_type;location;lat;lon;timestamp;temperature;humidity
56268;DHT22;42175;46.930;9.532;2022-11-20T00:01:27;23.10;42.20
56268;DHT22;42175;46.930;9.532;2022-11-20T00:03:55;23.10;42.20
56268;DHT22;42175;46.930;9.532;2022-11-20T00:06:22;23.10;42.10
56268;DHT22;42175;46.930;9.532;2022-11-20T00:08:50;23.10;42.20
56268;DHT22;42175;46.930;9.532;2022-11-20T00:11:18;23.10;42.20
56268;DHT22;42175;46.930;9.532;2022-11-20T00:13:45;23.10;42.30
56268;DHT22;42175;46.930;9.532;2022-11-20T00:16:13;23.00;42.20
56268;DHT22;42175;46.930;9.532;2022-11-20T00:18:40;23.10;42.20
56268;DHT22;42175;46.930;9.532;2022-11-20T00:21:13;23.00;42.30
56268;DHT22;42175;46.930;9.532;2022-11-20T00:23:40;23.10;42.20
56268;DHT22;42175;46.930;9.532;2022-11-20T00:26:08;23.00;42.20
56268;DHT22;42175;46.930;9.532;2022-11-20T00:28:35;23.00;42.20
56268;DHT22;42175;46.930;9.532;2022-11-20T00:31:12;23.00;42.20
56268;DHT22;42175;46.930;9.532;2022-11-20T00:33:38;23.00;42.20
56268;DHT22;42175;46.930;9.532;2022-11-20T00:36:06;23.00;42.20
56268;DHT22;42175;46.930;9.532;2022-11-20T00:38:33;23.00;42.20
56268;DHT22;42175;46.930;9.532;2022-11-20T00:41:00;23.00;42.30
56268;DHT22;42175;46.930;9.532;2022-11-20T00:43:27;23.00;42.30
56268;DHT22;42175;46.930;9.532;2022-11-20T00:46:00;23.00;42.40
56268;DHT22;42175;46.930;9.532;2022-11-20T00:48:26;23.00;42.30
56268;DHT22;42175;46.930;9.532;2022-11-20T00:50:52;23.00;42.30
56268;DHT22;42175;46.930;9.532;2022-11-20T00:53:18;23.00;42.30
56268;DHT22;42175;46.930;9.532;2022-11-20T00:55:53;23.00;42.30
56268;DHT22;42175;46.930;9.532;2022-11-20T00:58:19;23.00;42.40
56268;DHT22;42175;46.930;9.532;2022-11-20T01:00:45;23.00;42.40
56268;DHT22;42175;46.930;9.532;2022-11-20T01:03:10;23.00;42.50
56268;DHT22;42175;46.930;9.532;2022-11-20T01:05:36;23.00;42.40
56268;DHT22;42175;46.930;9.532;2022-11-20T01:08:02;22.90;42.40
56268;DHT22;42175;46.930;9.532;2022-11-20T01:10:27;23.00;42.50
56268;DHT22;42175;46.930;9.532;2022-11-20T01:12:54;23.00;42.50
56268;DHT22;42175;46.930;9.532;2022-11-20T01:15:39;22.90;42.50
56268;DHT22;42175;46.930;9.532;2022-11-20T01:18:05;22.90;42.40
56268;DHT22;42175;46.930;9.532;2022-11-20T01:20:34;22.90;42.50
56268;DHT22;42175;46.930;9.532;2022-11-20T01:23:02;22.90;42.70
56268;DHT22;42175;46.930;9.532;2022-11-20T01:25:27;22.90;42.60
56268;DHT22;42175;46.930;9.532;2022-11-20T01:27:53;22.90;42.60
56268;DHT22;42175;46.930;9.532;2022-11-20T01:30:19;22.90;42.60
56268;DHT22;42175;46.930;9.532;2022-11-20T01:32:44;22.90;42.70
56268;DHT22;42175;46.930;9.532;2022-11-20T01:35:10;22.90;42.70
56268;DHT22;42175;46.930;9.532;2022-11-20T01:37:36;22.90;42.70
56268;DHT22;42175;46.930;9.532;2022-11-20T01:40:02;22.90;42.70
56268;DHT22;42175;46.930;9.532;2022-11-20T01:42:28;22.90;42.70
56268;DHT22;42175;46.930;9.532;2022-11-20T01:48:15;22.90;42.70
56268;DHT22;42175;46.930;9.532;2022-11-20T01:50:42;22.90;42.70
56268;DHT22;42175;46.930;9.532;2022-11-20T01:53:11;22.90;42.70
56268;DHT22;42175;46.930;9.532;2022-11-20T01:55:47;22.80;42.60
56268;DHT22;42175;46.930;9.532;2022-11-20T01:58:15;22.80;42.70
56268;DHT22;42175;46.930;9.532;2022-11-20T02:00:42;22.90;42.60
56268;DHT22;42175;46.930;9.532;2022-11-20T02:03:13;22.90;42.70
56268;DHT22;42175;46.930;9.532;2022-11-20T02:08:16;22.80;42.70
56268;DHT22;42175;46.930;9.532;2022-11-20T02:10:42;22.80;42.70
56268;DHT22;42175;46.930;9.532;2022-11-20T02:13:08;22.90;42.70
56268;DHT22;42175;46.930;9.532;2022-11-20T02:15:53;22.90;42.80
56268;DHT22;42175;46.930;9.532;2022-11-20T02:18:20;22.80;42.70
56268;DHT22;42175;46.930;9.532;2022-11-20T02:20:48;22.80;42.60
56268;DHT22;42175;46.930;9.532;2022-11-20T02:23:23;22.80;42.70
56268;DHT22;42175;46.930;9.532;2022-11-20T02:25:53;22.80;42.70
56268;DHT22;42175;46.930;9.532;2022-11-20T02:28:20;22.80;43.30
56268;DHT22;42175;46.930;9.532;2022-11-20T02:30:46;22.80;42.70
56268;DHT22;42175;46.930;9.532;2022-11-20T02:33:13;22.80;42.70
56268;DHT22;42175;46.930;9.532;2022-11-20T02:35:43;22.80;42.70
56268;DHT22;42175;46.930;9.532;2022-11-20T02:38:10;22.80;42.80
56268;DHT22;42175;46.930;9.532;2022-11-20T02:40:35;22.80;42.80
56268;DHT22;42175;46.930;9.532;2022-11-20T02:43:01;22.80;42.80
56268;DHT22;42175;46.930;9.532;2022-11-20T02:45:27;22.80;42.90
56268;DHT22;42175;46.930;9.532;2022-11-20T02:47:53;22.80;42.80
56268;DHT22;42175;46.930;9.532;2022-11-20T02:50:18;22.80;42.90
56268;DHT22;42175;46.930;9.532;2022-11-20T02:52:44;22.80;42.80
56268;DHT22;42175;46.930;9.532;2022-11-20T02:55:10;22.80;42.80
56268;DHT22;42175;46.930;9.532;2022-11-20T02:57:36;22.80;42.70
56268;DHT22;42175;46.930;9.532;2022-11-20T03:00:03;22.70;42.80
56268;DHT22;42175;46.930;9.532;2022-11-20T03:02:30;22.80;42.80
56268;DHT22;42175;46.930;9.532;2022-11-20T03:04:56;22.80;42.80
56268;DHT22;42175;46.930;9.532;2022-11-20T03:07:22;22.80;42.80
56268;DHT22;42175;46.930;9.532;2022-11-20T03:09:48;22.80;42.80
56268;DHT22;42175;46.930;9.532;2022-11-20T03:12:13;22.70;42.80
56268;DHT22;42175;46.930;9.532;2022-11-20T03:14:39;22.80;42.80
56268;DHT22;42175;46.930;9.532;2022-11-20T03:17:05;22.70;42.70
56268;DHT22;42175;46.930;9.532;2022-11-20T03:19:31;22.70;42.80
56268;DHT22;42175;46.930;9.532;2022-11-20T03:21:56;22.70;42.80
56268;DHT22;42175;46.930;9.532;2022-11-20T03:24:22;22.70;42.80
56268;DHT22;42175;46.930;9.532;2022-11-20T03:26:47;22.70;42.90
56268;DHT22;42175;46.930;9.532;2022-11-20T03:29:13;22.70;42.80
56268;DHT22;42175;46.930;9.532;2022-11-20T03:31:41;22.70;42.80
56268;DHT22;42175;46.930;9.532;2022-11-20T03:34:08;22.70;42.80
56268;DHT22;42175;46.930;9.532;2022-11-20T03:36:35;22.70;42.80
56268;DHT22;42175;46.930;9.532;2022-11-20T03:39:02;22.70;42.80
56268;DHT22;42175;46.930;9.532;2022-11-20T03:41:30;22.70;43.00
56268;DHT22;42175;46.930;9.532;2022-11-20T03:44:01;22.70;42.90
56268;DHT22;42175;46.930;9.532;2022-11-20T03:46:29;22.70;42.80
56268;DHT22;42175;46.930;9.532;2022-11-20T03:48:55;22.70;42.90
56268;DHT22;42175;46.930;9.532;2022-11-20T03:51:23;22.70;42.80
56268;DHT22;42175;46.930;9.532;2022-11-20T03:53:51;22.70;42.90
56268;DHT22;42175;46.930;9.532;2022-11-20T03:56:19;22.70;42.90
56268;DHT22;42175;46.930;9.532;2022-11-20T03:58:46;22.70;42.90
56268;DHT22;42175;46.930;9.532;2022-11-20T04:01:17;22.70;43.00
56268;DHT22;42175;46.930;9.532;2022-11-20T04:03:44;22.70;42.90
56268;DHT22;42175;46.930;9.532;2022-11-20T04:06:19;22.70;43.00
56268;DHT22;42175;46.930;9.532;2022-11-20T04:08:46;22.70;43.00
56268;DHT22;42175;46.930;9.532;2022-11-20T04:11:13;22.70;42.80
56268;DHT22;42175;46.930;9.532;2022-11-20T04:13:40;22.70;42.80
56268;DHT22;42175;46.930;9.532;2022-11-20T04:16:07;22.70;43.00
56268;DHT22;42175;46.930;9.532;2022-11-20T04:18:33;22.70;42.90
56268;DHT22;42175;46.930;9.532;2022-11-20T04:20:59;22.70;43.00
56268;DHT22;42175;46.930;9.532;2022-11-20T04:23:26;22.70;42.90
56268;DHT22;42175;46.930;9.532;2022-11-20T04:25:52;22.70;42.80
56268;DHT22;42175;46.930;9.532;2022-11-20T04:28:18;22.70;42.80
56268;DHT22;42175;46.930;9.532;2022-11-20T04:30:43;22.80;42.70
56268;DHT22;42175;46.930;9.532;2022-11-20T04:33:09;22.80;42.80
56268;DHT22;42175;46.930;9.532;2022-11-20T04:35:35;22.80;42.80
56268;DHT22;42175;46.930;9.532;2022-11-20T04:38:02;22.70;42.70
56268;DHT22;42175;46.930;9.532;2022-11-20T04:40:28;22.80;42.70
56268;DHT22;42175;46.930;9.532;2022-11-20T04:42:54;22.80;42.70
56268;DHT22;42175;46.930;9.532;2022-11-20T04:45:21;22.70;42.70
56268;DHT22;42175;46.930;9.532;2022-11-20T04:47:47;22.80;42.70
56268;DHT22;42175;46.930;9.532;2022-11-20T04:50:12;22.80;42.70
56268;DHT22;42175;46.930;9.532;2022-11-20T04:52:38;22.80;42.80
56268;DHT22;42175;46.930;9.532;2022-11-20T04:55:04;22.80;42.60
56268;DHT22;42175;46.930;9.532;2022-11-20T04:57:30;22.80;42.80
56268;DHT22;42175;46.930;9.532;2022-11-20T04:59:56;22.80;42.70
56268;DHT22;42175;46.930;9.532;2022-11-20T05:02:21;22.80;42.70
56268;DHT22;42175;46.930;9.532;2022-11-20T05:04:47;22.80;42.60
56268;DHT22;42175;46.930;9.532;2022-11-20T05:07:13;22.80;42.70
56268;DHT22;42175;46.930;9.532;2022-11-20T05:09:39;22.80;42.80
56268;DHT22;42175;46.930;9.532;2022-11-20T05:12:06;22.80;42.80
56268;DHT22;42175;46.930;9.532;2022-11-20T05:14:32;22.90;42.90
56268;DHT22;42175;46.930;9.532;2022-11-20T05:16:57;22.80;42.80
56268;DHT22;42175;46.930;9.532;2022-11-20T05:19:23;22.90;42.80
56268;DHT22;42175;46.930;9.532;2022-11-20T05:21:49;22.90;42.80
56268;DHT22;42175;46.930;9.532;2022-11-20T05:24:14;22.80;42.70
56268;DHT22;42175;46.930;9.532;2022-11-20T05:26:40;22.80;42.80
56268;DHT22;42175;46.930;9.532;2022-11-20T05:29:06;22.80;42.70
56268;DHT22;42175;46.930;9.532;2022-11-20T05:31:32;22.80;42.80
56268;DHT22;42175;46.930;9.532;2022-11-20T05:33:57;22.80;42.70
56268;DHT22;42175;46.930;9.532;2022-11-20T05:36:23;22.80;43.40
56268;DHT22;42175;46.930;9.532;2022-11-20T05:38:49;22.80;42.70
56268;DHT22;42175;46.930;9.532;2022-11-20T05:41:16;22.90;42.80
56268;DHT22;42175;46.930;9.532;2022-11-20T05:43:45;22.90;42.70
56268;DHT22;42175;46.930;9.532;2022-11-20T05:46:13;22.80;42.70
56268;DHT22;42175;46.930;9.532;2022-11-20T05:48:41;22.80;42.70
56268;DHT22;42175;46.930;9.532;2022-11-20T05:51:09;22.80;42.60
56268;DHT22;42175;46.930;9.532;2022-11-20T05:53:36;22.80;42.60
56268;DHT22;42175;46.930;9.532;2022-11-20T05:56:06;22.80;42.50
56268;DHT22;42175;46.930;9.532;2022-11-20T05:58:33;22.80;42.60
56268;DHT22;42175;46.930;9.532;2022-11-20T06:03:36;22.90;42.70
56268;DHT22;42175;46.930;9.532;2022-11-20T06:06:03;22.90;42.60
56268;DHT22;42175;46.930;9.532;2022-11-20T06:08:30;22.90;42.60
56268;DHT22;42175;46.930;9.532;2022-11-20T06:10:56;22.90;42.60
56268;DHT22;42175;46.930;9.532;2022-11-20T06:13:22;22.90;42.40
56268;DHT22;42175;46.930;9.532;2022-11-20T06:15:52;22.90;42.50
56268;DHT22;42175;46.930;9.532;2022-11-20T06:18:19;22.90;43.10
56268;DHT22;42175;46.930;9.532;2022-11-20T06:20:45;22.90;42.50
56268;DHT22;42175;46.930;9.532;2022-11-20T06:23:12;22.90;42.50
56268;DHT22;42175;46.930;9.532;2022-11-20T06:25:42;22.90;42.40
56268;DHT22;42175;46.930;9.532;2022-11-20T06:28:08;22.90;42.50
56268;DHT22;42175;46.930;9.532;2022-11-20T06:30:35;22.90;42.40
56268;DHT22;42175;46.930;9.532;2022-11-20T06:33:01;22.90;42.40
56268;DHT22;42175;46.930;9.532;2022-11-20T06:35:27;22.90;42.50
56268;DHT22;42175;46.930;9.532;2022-11-20T06:37:53;22.90;42.40
56268;DHT22;42175;46.930;9.532;2022-11-20T06:40:18;22.90;42.40
56268;DHT22;42175;46.930;9.532;2022-11-20T06:42:45;22.90;43.00
56268;DHT22;42175;46.930;9.532;2022-11-20T06:45:10;22.90;42.30
56268;DHT22;42175;46.930;9.532;2022-11-20T06:47:36;22.90;42.30
56268;DHT22;42175;46.930;9.532;2022-11-20T06:50:02;22.90;42.30
56268;DHT22;42175;46.930;9.532;2022-11-20T06:52:28;22.90;42.30
56268;DHT22;42175;46.930;9.532;2022-11-20T06:54:53;22.90;42.30
56268;DHT22;42175;46.930;9.532;2022-11-20T06:57:19;22.90;42.30
56268;DHT22;42175;46.930;9.532;2022-11-20T06:59:45;22.90;43.00
56268;DHT22;42175;46.930;9.532;2022-11-20T07:02:11;22.90;42.50
56268;DHT22;42175;46.930;9.532;2022-11-20T07:04:38;22.90;42.40
56268;DHT22;42175;46.930;9.532;2022-11-20T07:07:04;22.90;42.40
56268;DHT22;42175;46.930;9.532;2022-11-20T07:09:29;23.00;42.50
56268;DHT22;42175;46.930;9.532;2022-11-20T07:11:55;22.90;42.40
56268;DHT22;42175;46.930;9.532;2022-11-20T07:14:21;22.90;42.50
56268;DHT22;42175;46.930;9.532;2022-11-20T07:16:46;23.00;42.70
56268;DHT22;42175;46.930;9.532;2022-11-20T07:19:12;23.00;42.80
56268;DHT22;42175;46.930;9.532;2022-11-20T07:21:37;23.00;43.20
56268;DHT22;42175;46.930;9.532;2022-11-20T07:24:03;23.00;43.40
56268;DHT22;42175;46.930;9.532;2022-11-20T07:26:29;23.00;43.30
56268;DHT22;42175;46.930;9.532;2022-11-20T07:28:54;23.00;43.30
56268;DHT22;42175;46.930;9.532;2022-11-20T07:31:20;23.00;43.20
56268;DHT22;42175;46.930;9.532;2022-11-20T07:33:46;23.10;43.20
56268;DHT22;42175;46.930;9.532;2022-11-20T07:36:12;23.10;43.20
56268;DHT22;42175;46.930;9.532;2022-11-20T07:38:37;23.10;43.20
56268;DHT22;42175;46.930;9.532;2022-11-20T07:41:04;23.10;43.20
56268;DHT22;42175;46.930;9.532;2022-11-20T07:43:30;23.10;43.30
56268;DHT22;42175;46.930;9.532;2022-11-20T07:45:56;23.00;43.30
56268;DHT22;42175;46.930;9.532;2022-11-20T07:48:23;23.00;44.00
56268;DHT22;42175;46.930;9.532;2022-11-20T07:50:49;23.00;43.50
56268;DHT22;42175;46.930;9.532;2022-11-20T07:53:15;23.00;43.50
56268;DHT22;42175;46.930;9.532;2022-11-20T07:55:46;23.00;43.50
56268;DHT22;42175;46.930;9.532;2022-11-20T07:58:12;23.00;43.60
56268;DHT22;42175;46.930;9.532;2022-11-20T08:00:39;23.00;43.50
56268;DHT22;42175;46.930;9.532;2022-11-20T08:03:05;23.00;44.10
56268;DHT22;42175;46.930;9.532;2022-11-20T08:05:31;23.00;43.50
56268;DHT22;42175;46.930;9.532;2022-11-20T08:07:57;23.00;43.40
56268;DHT22;42175;46.930;9.532;2022-11-20T08:10:22;23.00;43.50
56268;DHT22;42175;46.930;9.532;2022-11-20T08:12:49;23.00;43.50
56268;DHT22;42175;46.930;9.532;2022-11-20T08:15:35;23.00;43.50
56268;DHT22;42175;46.930;9.532;2022-11-20T08:18:11;21.90;34.20
56268;DHT22;42175;46.930;9.532;2022-11-20T08:20:37;19.60;35.60
56268;DHT22;42175;46.930;9.532;2022-11-20T08:23:06;18.40;37.40
56268;DHT22;42175;46.930;9.532;2022-11-20T08:25:34;19.60;39.80
56268;DHT22;42175;46.930;9.532;2022-11-20T08:28:02;20.70;41.50
56268;DHT22;42175;46.930;9.532;2022-11-20T08:30:28;21.50;42.70
56268;DHT22;42175;46.930;9.532;2022-11-20T08:32:59;21.90;42.50
56268;DHT22;42175;46.930;9.532;2022-11-20T08:35:26;22.20;41.90
56268;DHT22;42175;46.930;9.532;2022-11-20T08:37:51;22.40;42.00
56268;DHT22;42175;46.930;9.532;2022-11-20T08:40:17;22.50;41.80
56268;DHT22;42175;46.930;9.532;2022-11-20T08:42:50;22.60;41.90
56268;DHT22;42175;46.930;9.532;2022-11-20T08:45:18;22.60;41.90
56268;DHT22;42175;46.930;9.532;2022-11-20T08:47:44;22.70;41.90
56268;DHT22;42175;46.930;9.532;2022-11-20T08:50:11;22.60;37.20
56268;DHT22;42175;46.930;9.532;2022-11-20T08:52:38;21.40;33.60
56268;DHT22;42175;46.930;9.532;2022-11-20T08:55:05;21.20;37.00
56268;DHT22;42175;46.930;9.532;2022-11-20T08:57:34;21.70;39.50
56268;DHT22;42175;46.930;9.532;2022-11-20T09:00:02;22.10;41.40
56268;DHT22;42175;46.930;9.532;2022-11-20T09:02:28;22.40;41.50
56268;DHT22;42175;46.930;9.532;2022-11-20T09:04:54;22.50;41.30
56268;DHT22;42175;46.930;9.532;2022-11-20T09:07:20;22.50;41.30
56268;DHT22;42175;46.930;9.532;2022-11-20T09:09:46;22.60;41.20
56268;DHT22;42175;46.930;9.532;2022-11-20T09:12:11;22.70;41.30
56268;DHT22;42175;46.930;9.532;2022-11-20T09:14:37;22.70;41.30
56268;DHT22;42175;46.930;9.532;2022-11-20T09:17:03;22.70;41.20
56268;DHT22;42175;46.930;9.532;2022-11-20T09:19:28;22.70;41.20
56268;DHT22;42175;46.930;9.532;2022-11-20T09:21:54;22.80;41.40
56268;DHT22;42175;46.930;9.532;2022-11-20T09:24:20;22.70;41.30
56268;DHT22;42175;46.930;9.532;2022-11-20T09:26:48;22.80;41.40
56268;DHT22;42175;46.930;9.532;2022-11-20T09:29:14;22.90;41.50
56268;DHT22;42175;46.930;9.532;2022-11-20T09:31:40;22.90;41.50
56268;DHT22;42175;46.930;9.532;2022-11-20T09:34:05;22.90;41.40
56268;DHT22;42175;46.930;9.532;2022-11-20T09:36:31;23.00;41.40
56268;DHT22;42175;46.930;9.532;2022-11-20T09:38:57;23.10;41.40
56268;DHT22;42175;46.930;9.532;2022-11-20T09:44:24;23.30;41.40
56268;DHT22;42175;46.930;9.532;2022-11-20T09:47:20;23.40;41.40
56268;DHT22;42175;46.930;9.532;2022-11-20T09:55:31;23.30;41.50
56268;DHT22;42175;46.930;9.532;2022-11-20T09:57:58;23.40;41.50
56268;DHT22;42175;46.930;9.532;2022-11-20T10:00:25;23.40;41.50
56268;DHT22;42175;46.930;9.532;2022-11-20T10:05:53;23.50;41.40
56268;DHT22;42175;46.930;9.532;2022-11-20T10:08:25;23.60;41.30
56268;DHT22;42175;46.930;9.532;2022-11-20T10:11:16;23.60;41.40
56268;DHT22;42175;46.930;9.532;2022-11-20T10:13:59;23.60;41.20
56268;DHT22;42175;46.930;9.532;2022-11-20T10:30:11;23.70;41.30
56268;DHT22;42175;46.930;9.532;2022-11-20T10:32:42;23.70;41.30
56268;DHT22;42175;46.930;9.532;2022-11-20T10:35:16;23.70;41.40
56268;DHT22;42175;46.930;9.532;2022-11-20T10:37:47;23.70;41.40
56268;DHT22;42175;46.930;9.532;2022-11-20T10:40:37;23.70;41.40
56268;DHT22;42175;46.930;9.532;2022-11-20T10:43:32;23.70;41.50
56268;DHT22;42175;46.930;9.532;2022-11-20T10:46:05;23.70;41.50
56268;DHT22;42175;46.930;9.532;2022-11-20T10:48:34;23.70;41.60
56268;DHT22;42175;46.930;9.532;2022-11-20T10:51:21;23.70;41.70
56268;DHT22;42175;46.930;9.532;2022-11-20T10:57:02;23.60;42.40
56268;DHT22;42175;46.930;9.532;2022-11-20T11:01:59;23.60;41.90
56268;DHT22;42175;46.930;9.532;2022-11-20T11:04:43;23.60;41.40
56268;DHT22;42175;46.930;9.532;2022-11-20T11:07:42;23.50;41.80
56268;DHT22;42175;46.930;9.532;2022-11-20T11:10:01;23.50;41.80
56268;DHT22;42175;46.930;9.532;2022-11-20T11:12:28;23.50;40.80
56268;DHT22;42175;46.930;9.532;2022-11-20T11:14:56;23.20;37.30
56268;DHT22;42175;46.930;9.532;2022-11-20T11:17:29;22.90;36.80
56268;DHT22;42175;46.930;9.532;2022-11-20T11:22:34;23.20;39.90
56268;DHT22;42175;46.930;9.532;2022-11-20T11:25:00;23.20;37.40
56268;DHT22;42175;46.930;9.532;2022-11-20T11:27:26;23.20;40.00
56268;DHT22;42175;46.930;9.532;2022-11-20T11:30:11;23.20;40.10
56268;DHT22;42175;46.930;9.532;2022-11-20T11:32:38;23.30;40.10
56268;DHT22;42175;46.930;9.532;2022-11-20T11:35:06;23.30;40.20
56268;DHT22;42175;46.930;9.532;2022-11-20T11:37:39;23.40;40.40
56268;DHT22;42175;46.930;9.532;2022-11-20T11:40:05;23.40;40.40
56268;DHT22;42175;46.930;9.532;2022-11-20T11:42:32;23.40;40.50
56268;DHT22;42175;46.930;9.532;2022-11-20T11:44:59;23.40;40.60
56268;DHT22;42175;46.930;9.532;2022-11-20T11:47:43;23.40;40.60
56268;DHT22;42175;46.930;9.532;2022-11-20T12:00:37;23.40;40.80
56268;DHT22;42175;46.930;9.532;2022-11-20T12:03:19;23.40;40.90
56268;DHT22;42175;46.930;9.532;2022-11-20T12:05:57;23.40;40.80
56268;DHT22;42175;46.930;9.532;2022-11-20T12:09:24;23.40;40.90
56268;DHT22;42175;46.930;9.532;2022-11-20T12:11:38;23.40;40.90
56268;DHT22;42175;46.930;9.532;2022-11-20T12:14:24;23.40;40.90
56268;DHT22;42175;46.930;9.532;2022-11-20T12:16:52;23.40;40.90
56268;DHT22;42175;46.930;9.532;2022-11-20T12:19:19;23.40;41.00
56268;DHT22;42175;46.930;9.532;2022-11-20T12:21:57;23.40;41.00
56268;DHT22;42175;46.930;9.532;2022-11-20T12:24:52;23.40;41.00
56268;DHT22;42175;46.930;9.532;2022-11-20T12:27:47;23.40;41.00
56268;DHT22;42175;46.930;9.532;2022-11-20T12:30:21;23.40;41.10
56268;DHT22;42175;46.930;9.532;2022-11-20T12:43:22;23.40;41.40
56268;DHT22;42175;46.930;9.532;2022-11-20T12:54:27;23.60;41.70
56268;DHT22;42175;46.930;9.532;2022-11-20T12:57:05;23.60;42.00
56268;DHT22;42175;46.930;9.532;2022-11-20T13:02:25;23.70;42.10
56268;DHT22;42175;46.930;9.532;2022-11-20T13:05:21;23.70;42.10
56268;DHT22;42175;46.930;9.532;2022-11-20T13:07:52;23.70;42.20
56268;DHT22;42175;46.930;9.532;2022-11-20T13:13:15;23.70;42.30
56268;DHT22;42175;46.930;9.532;2022-11-20T13:16:02;23.70;42.30
56268;DHT22;42175;46.930;9.532;2022-11-20T13:18:36;23.60;42.30
56268;DHT22;42175;46.930;9.532;2022-11-20T13:21:23;23.60;42.30
56268;DHT22;42175;46.930;9.532;2022-11-20T13:24:27;23.70;42.40
56268;DHT22;42175;46.930;9.532;2022-11-20T13:29:35;23.70;42.40
56268;DHT22;42175;46.930;9.532;2022-11-20T13:32:18;23.70;42.40
56268;DHT22;42175;46.930;9.532;2022-11-20T13:34:55;23.70;42.40
56268;DHT22;42175;46.930;9.532;2022-11-20T13:39:49;23.70;42.40
56268;DHT22;42175;46.930;9.532;2022-11-20T13:44:52;23.70;42.40
56268;DHT22;42175;46.930;9.532;2022-11-20T13:47:26;23.70;42.40
56268;DHT22;42175;46.930;9.532;2022-11-20T13:49:54;23.70;42.40
56268;DHT22;42175;46.930;9.532;2022-11-20T13:58:19;23.70;42.40
56268;DHT22;42175;46.930;9.532;2022-11-20T14:01:09;23.70;42.60
56268;DHT22;42175;46.930;9.532;2022-11-20T14:03:36;23.60;42.60
56268;DHT22;42175;46.930;9.532;2022-11-20T14:06:10;23.70;42.80
56268;DHT22;42175;46.930;9.532;2022-11-20T14:08:46;23.70;42.80
56268;DHT22;42175;46.930;9.532;2022-11-20T14:11:21;23.60;42.80
56268;DHT22;42175;46.930;9.532;2022-11-20T14:16:37;23.60;42.90
56268;DHT22;42175;46.930;9.532;2022-11-20T14:19:35;23.60;42.90
56268;DHT22;42175;46.930;9.532;2022-11-20T14:22:21;23.60;43.00
56268;DHT22;42175;46.930;9.532;2022-11-20T14:24:49;23.60;43.10
56268;DHT22;42175;46.930;9.532;2022-11-20T14:27:26;23.60;43.20
56268;DHT22;42175;46.930;9.532;2022-11-20T14:29:52;23.60;43.20
56268;DHT22;42175;46.930;9.532;2022-11-20T14:32:28;23.60;43.20
56268;DHT22;42175;46.930;9.532;2022-11-20T14:34:54;23.60;43.30
56268;DHT22;42175;46.930;9.532;2022-11-20T14:37:24;23.60;43.20
56268;DHT22;42175;46.930;9.532;2022-11-20T14:39:54;23.60;43.20
56268;DHT22;42175;46.930;9.532;2022-11-20T14:42:21;23.60;43.10
56268;DHT22;42175;46.930;9.532;2022-11-20T14:44:49;23.60;43.10
56268;DHT22;42175;46.930;9.532;2022-11-20T14:47:19;23.60;43.20
56268;DHT22;42175;46.930;9.532;2022-11-20T14:49:47;23.60;43.30
56268;DHT22;42175;46.930;9.532;2022-11-20T14:54:45;23.50;43.30
56268;DHT22;42175;46.930;9.532;2022-11-20T15:02:42;23.60;43.00
56268;DHT22;42175;46.930;9.532;2022-11-20T15:05:08;23.60;43.00
56268;DHT22;42175;46.930;9.532;2022-11-20T15:07:42;23.60;43.00
56268;DHT22;42175;46.930;9.532;2022-11-20T15:10:27;23.60;43.10
56268;DHT22;42175;46.930;9.532;2022-11-20T15:12:54;23.60;43.10
56268;DHT22;42175;46.930;9.532;2022-11-20T15:15:47;23.60;43.20
56268;DHT22;42175;46.930;9.532;2022-11-20T15:18:22;23.70;43.20
56268;DHT22;42175;46.930;9.532;2022-11-20T15:20:49;23.60;43.20
56268;DHT22;42175;46.930;9.532;2022-11-20T15:23:17;23.70;43.30
56268;DHT22;42175;46.930;9.532;2022-11-20T15:25:45;23.70;43.30
56268;DHT22;42175;46.930;9.532;2022-11-20T15:28:22;23.60;43.30
56268;DHT22;42175;46.930;9.532;2022-11-20T15:30:49;23.70;43.30
56268;DHT22;42175;46.930;9.532;2022-11-20T15:33:16;23.70;43.30
56268;DHT22;42175;46.930;9.532;2022-11-20T15:35:43;23.60;43.30
56268;DHT22;42175;46.930;9.532;2022-11-20T15:38:09;23.60;43.20
56268;DHT22;42175;46.930;9.532;2022-11-20T15:40:35;23.60;43.30
56268;DHT22;42175;46.930;9.532;2022-11-20T15:43:01;23.60;43.40
56268;DHT22;42175;46.930;9.532;2022-11-20T15:45:48;23.60;43.30
56268;DHT22;42175;46.930;9.532;2022-11-20T15:48:20;23.70;43.40
56268;DHT22;42175;46.930;9.532;2022-11-20T15:50:52;23.70;43.50
56268;DHT22;42175;46.930;9.532;2022-11-20T15:53:19;23.80;43.50
56268;DHT22;42175;46.930;9.532;2022-11-20T15:55:45;23.80;43.40
56268;DHT22;42175;46.930;9.532;2022-11-20T15:58:11;23.80;43.50
56268;DHT22;42175;46.930;9.532;2022-11-20T16:00:36;23.80;43.50
56268;DHT22;42175;46.930;9.532;2022-11-20T16:03:02;23.80;43.50
56268;DHT22;42175;46.930;9.532;2022-11-20T16:05:29;23.80;43.40
56268;DHT22;42175;46.930;9.532;2022-11-20T16:07:55;23.80;43.30
56268;DHT22;42175;46.930;9.532;2022-11-20T16:10:22;23.90;43.50
56268;DHT22;42175;46.930;9.532;2022-11-20T16:12:47;23.80;43.30
56268;DHT22;42175;46.930;9.532;2022-11-20T16:15:50;23.80;43.60
56268;DHT22;42175;46.930;9.532;2022-11-20T16:18:20;23.90;43.40
56268;DHT22;42175;46.930;9.532;2022-11-20T16:20:49;24.00;43.40
56268;DHT22;42175;46.930;9.532;2022-11-20T16:23:15;24.00;43.40
56268;DHT22;42175;46.930;9.532;2022-11-20T16:25:41;24.00;43.40
56268;DHT22;42175;46.930;9.532;2022-11-20T16:28:07;23.90;43.40
56268;DHT22;42175;46.930;9.532;2022-11-20T16:30:33;23.90;43.40
56268;DHT22;42175;46.930;9.532;2022-11-20T16:33:00;23.90;43.40
56268;DHT22;42175;46.930;9.532;2022-11-20T16:35:30;24.00;43.40
56268;DHT22;42175;46.930;9.532;2022-11-20T16:37:57;24.00;43.40
56268;DHT22;42175;46.930;9.532;2022-11-20T16:40:24;23.90;43.00
56268;DHT22;42175;46.930;9.532;2022-11-20T16:42:50;23.90;43.10
56268;DHT22;42175;46.930;9.532;2022-11-20T16:45:16;23.90;43.30
56268;DHT22;42175;46.930;9.532;2022-11-20T16:47:42;23.90;43.40
56268;DHT22;42175;46.930;9.532;2022-11-20T16:50:08;23.90;43.30
56268;DHT22;42175;46.930;9.532;2022-11-20T16:52:35;23.90;43.30
56268;DHT22;42175;46.930;9.532;2022-11-20T16:55:01;24.00;43.30
56268;DHT22;42175;46.930;9.532;2022-11-20T16:57:30;23.90;43.30
56268;DHT22;42175;46.930;9.532;2022-11-20T16:59:58;24.00;43.30
56268;DHT22;42175;46.930;9.532;2022-11-20T17:02:25;24.00;43.20
56268;DHT22;42175;46.930;9.532;2022-11-20T17:04:51;24.00;43.20
56268;DHT22;42175;46.930;9.532;2022-11-20T17:07:17;24.00;43.20
56268;DHT22;42175;46.930;9.532;2022-11-20T17:09:43;24.00;43.20
56268;DHT22;42175;46.930;9.532;2022-11-20T17:12:08;24.00;43.20
56268;DHT22;42175;46.930;9.532;2022-11-20T17:14:34;24.00;43.20
56268;DHT22;42175;46.930;9.532;2022-11-20T17:17:00;24.00;43.20
56268;DHT22;42175;46.930;9.532;2022-11-20T17:19:26;24.00;43.20
56268;DHT22;42175;46.930;9.532;2022-11-20T17:21:52;24.00;43.20
56268;DHT22;42175;46.930;9.532;2022-11-20T17:24:18;24.00;43.20